Data for 10/08/2016

Time Sea-Level Adjusted Pressure Absolute Pressure Temperature Relative Humidity Dew Point   
(mb) (inHg) (mb) (inHg) (C) (F) (%) (C) (F)
00:05 1021 30.15 850 25.1 11.7 53.1 42 -0.7 30.7
00:10 1021 30.15 850 25.1 11.7 53 42 -0.6 30.9
00:15 1021 30.15 850 25.1 11.6 52.9 43 -0.4 31.3
00:20 1021 30.15 850 25.1 11.4 52.5 44 -0.4 31.3
00:25 1021 30.15 850 25.1 11.4 52.4 43 -0.6 30.9
00:30 1021 30.15 850 25.1 11.5 52.6 43 -0.6 31
00:35 1021 30.15 850 25.1 11.5 52.8 42 -0.8 30.6
00:40 1021 30.15 850 25.1 11.6 52.9 43 -0.6 30.9
00:45 1021 30.15 850 25.1 11.6 52.9 43 -0.4 31.3
00:50 1021 30.15 850 25.1 11.5 52.7 44 -0.4 31.3
00:55 1021 30.15 850 25.1 11.4 52.6 44 -0.2 31.7
01:00 1021 30.15 850 25.1 11.2 52.2 45 -0.3 31.5
01:05 1021 30.15 850 25.1 11.2 52.1 44 -0.4 31.2
01:10 1021 30.15 850 25.1 11.3 52.3 43 -0.8 30.5
01:15 1021 30.15 850 25.1 11.5 52.7 44 -0.4 31.3
01:20 1021 30.15 850 25.1 11.4 52.5 44 -0.5 31.1
01:25 1021 30.15 850 25.1 11.3 52.4 45 -0 32
01:30 1021 30.15 851 25.13 10.9 51.6 47 0.2 32.3
01:35 1021 30.15 851 25.13 10.6 51.1 47 -0.1 31.8
01:40 1022 30.18 851 25.13 10.7 51.3 48 0.2 32.4
01:45 1022 30.18 851 25.13 10.7 51.2 47 -0.1 31.9
01:50 1022 30.18 851 25.13 10.9 51.7 47 -0 32
01:55 1022 30.18 851 25.13 11.1 52 46 0.1 32.2
02:00 1022 30.18 851 25.13 11.1 52.1 47 0.3 32.6
02:05 1022 30.18 851 25.13 11.1 52 47 0.3 32.5
02:10 1022 30.18 851 25.13 11.3 52.3 46 0.2 32.3
02:15 1022 30.18 851 25.13 11.5 52.7 46 0.3 32.5
02:20 1022 30.18 851 25.13 11.5 52.8 46 0.4 32.8
02:25 1022 30.18 851 25.13 11.5 52.7 47 0.5 33
02:30 1022 30.18 851 25.13 11.4 52.4 48 0.7 33.2
02:35 1022 30.18 851 25.13 11.3 52.4 47 0.5 32.8
02:40 1022 30.18 851 25.13 11.3 52.4 47 0.5 32.9
02:45 1022 30.18 851 25.13 11.4 52.5 47 0.5 33
02:50 1022 30.18 851 25.13 11.5 52.8 47 0.5 33
02:55 1022 30.18 851 25.13 11.7 53 46 0.5 32.9
03:00 1022 30.18 851 25.13 11.8 53.3 45 0.4 32.7
03:05 1022 30.18 851 25.13 12 53.6 44 0.2 32.4
03:10 1022 30.18 851 25.13 12.2 54 43 -0 32
03:15 1022 30.18 851 25.13 12.4 54.3 42 0.1 32.1
03:20 1022 30.18 851 25.13 12.4 54.3 43 0.2 32.4
03:25 1022 30.18 851 25.13 12.4 54.2 43 0.3 32.5
03:30 1022 30.18 851 25.13 12.3 54.1 44 0.6 33
03:35 1022 30.18 851 25.13 12.1 53.7 48 1.4 34.6
03:40 1022 30.18 852 25.16 11.6 53 48 1.2 34.1
03:45 1022 30.18 851 25.13 11.3 52.3 49 1.1 34
03:50 1022 30.18 851 25.13 11.1 51.9 49 0.9 33.6
03:55 1022 30.18 851 25.13 11 51.9 49 0.8 33.4
04:00 1022 30.18 851 25.13 11 51.7 50 1 33.7
04:05 1022 30.18 851 25.13 10.9 51.6 51 1.2 34.1
04:10 1022 30.18 851 25.13 10.8 51.4 50 0.8 33.5
04:15 1022 30.18 851 25.13 10.7 51.2 50 0.7 33.3
04:20 1022 30.18 852 25.16 10.7 51.2 50 0.8 33.4
04:25 1022 30.18 852 25.16 10.7 51.3 51 1 33.8
04:30 1022 30.18 851 25.13 10.6 51.1 51 1 33.7
04:35 1022 30.18 851 25.13 10.6 51 51 0.8 33.5
04:40 1022 30.18 852 25.16 10.6 51.2 51 0.9 33.7
04:45 1022 30.18 851 25.13 10.6 51.1 51 1 33.7
04:50 1022 30.18 851 25.13 10.6 51.1 51 0.9 33.7
04:55 1022 30.18 851 25.13 10.6 51.1 51 1 33.9
05:00 1022 30.18 851 25.13 10.6 51 52 1.2 34.2
05:05 1022 30.18 851 25.13 10.4 50.7 53 1.3 34.4
05:10 1022 30.18 852 25.16 10.3 50.6 53 1.3 34.4
05:15 1022 30.18 852 25.16 10.3 50.5 54 1.4 34.5
05:20 1022 30.18 852 25.16 10.2 50.4 54 1.3 34.3
05:25 1022 30.18 852 25.16 10.4 50.6 53 1.4 34.4
05:30 1022 30.18 852 25.16 10.4 50.7 53 1.3 34.3
05:35 1022 30.18 852 25.16 10.4 50.7 52 1.1 34
05:40 1022 30.18 852 25.16 10.5 50.8 53 1.3 34.3
05:45 1023 30.21 852 25.16 10.7 51.2 49 0.6 33
05:50 1023 30.21 852 25.16 11.1 51.9 49 0.8 33.5
05:55 1023 30.21 852 25.16 11.1 51.9 50 1.2 34.1
06:00 1023 30.21 852 25.16 10.9 51.5 51 1.2 34.1
06:05 1023 30.21 852 25.16 10.7 51.3 52 1.4 34.5
06:10 1023 30.21 852 25.16 10.6 51 52 1.3 34.3
06:15 1023 30.21 852 25.16 10.5 50.9 53 1.2 34.2
06:20 1023 30.21 852 25.16 10.5 50.9 52 1.1 34
06:25 1023 30.21 852 25.16 10.5 51 52 1.2 34.1
06:30 1023 30.21 852 25.16 10.5 50.9 52 1.2 34.2
06:35 1023 30.21 852 25.16 10.4 50.7 53 1.4 34.5
06:40 1023 30.21 852 25.16 10.3 50.6 54 1.6 34.8
06:45 1023 30.21 852 25.16 10.2 50.3 55 1.6 34.9
06:50 1023 30.21 852 25.16 9.9 49.9 57 1.8 35.3
06:55 1023 30.21 852 25.16 9.7 49.4 58 1.8 35.2
07:00 1023 30.21 852 25.16 9.6 49.3 57 1.4 34.6
07:05 1023 30.21 852 25.16 9.8 49.7 55 1.3 34.4
07:10 1023 30.21 852 25.16 10 50 54 1.2 34.2
07:15 1023 30.21 852 25.16 10 50 58 2.2 35.9
07:20 1023 30.21 852 25.16 9.6 49.3 58 1.7 35.1
07:25 1023 30.21 852 25.16 9.5 49.2 59 2 35.6
07:30 1023 30.21 852 25.16 9.5 49.1 60 2.1 35.7
07:35 1023 30.21 852 25.16 9.6 49.2 59 2 35.6
07:40 1023 30.21 852 25.16 9.6 49.3 59 2.1 35.8
07:45 1023 30.21 852 25.16 9.8 49.6 57 1.6 34.9
07:50 1023 30.21 852 25.16 10 50 57 1.8 35.3
07:55 1023 30.21 852 25.16 10.2 50.4 56 1.8 35.2
08:00 1023 30.21 852 25.16 10.5 50.8 54 1.5 34.7
08:05 1023 30.21 852 25.16 11.2 52.2 51 1.4 34.6
08:10 1023 30.21 852 25.16 11.9 53.4 48 1.3 34.4
08:15 1023 30.21 852 25.16 12.6 54.6 45 0.9 33.6
08:20 1023 30.21 852 25.16 13.4 56.2 41 0.6 33.1
08:25 1023 30.21 852 25.16 13.8 56.9 43 1.4 34.6
08:30 1023 30.21 852 25.16 14.5 58.1 41 1.3 34.4
08:35 1023 30.21 852 25.16 15 59 41 1.9 35.5
08:40 1023 30.21 852 25.16 14.8 58.7 40 1.5 34.7
08:45 1023 30.21 852 25.16 14.8 58.6 41 1.7 35.1
08:50 1023 30.21 852 25.16 14.7 58.5 39 1 33.9
08:55 1023 30.21 852 25.16 15.1 59.2 36 0.2 32.3
09:00 1023 30.21 852 25.16 15.7 60.3 35 0.3 32.6
09:05 1023 30.21 852 25.16 16.3 61.4 35 1 33.8
09:10 1023 30.21 852 25.16 16.2 61.2 35 1 33.8
09:15 1023 30.21 852 25.16 16.1 61 37 1.5 34.6
09:20 1023 30.21 852 25.16 15.9 60.6 36 1.1 34
09:25 1023 30.21 852 25.16 16.1 60.9 36 1 33.8
09:30 1023 30.21 852 25.16 16.6 61.8 34 0.7 33.2
09:35 1023 30.21 852 25.16 16.7 62 35 1.2 34.1
09:40 1023 30.21 852 25.16 16.4 61.5 35 0.9 33.6
09:45 1023 30.21 852 25.16 16.4 61.6 35 1.1 33.9
09:50 1023 30.21 852 25.16 16.6 61.9 34 0.7 33.2
09:55 1023 30.21 852 25.16 16.7 62.1 33 0.3 32.6
10:00 1023 30.21 852 25.16 17.2 62.9 32 0.6 33
10:05 1023 30.21 852 25.16 16.7 62.1 33 0.5 33
10:10 1023 30.21 852 25.16 17.3 63.2 31 0.1 32.3
10:15 1023 30.21 852 25.16 17.7 63.8 31 0.6 33.1
10:20 1023 30.21 852 25.16 17.9 64.2 29 -0.1 31.9
10:25 1023 30.21 852 25.16 18.2 64.7 30 0.3 32.5
10:30 1023 30.21 852 25.16 18.4 65 29 0.2 32.4
10:35 1023 30.21 852 25.16 18.4 65.1 30 0.6 33.1
10:40 1023 30.21 852 25.16 18.3 65 29 0.2 32.4
10:45 1022 30.18 852 25.16 18.3 65 30 0.4 32.7
10:50 1022 30.18 852 25.16 18 64.3 28 -0.6 30.9
10:55 1022 30.18 852 25.16 18.1 64.6 29 0.1 32.2
11:00 1022 30.18 852 25.16 18.4 65 29 0.2 32.3
11:05 1022 30.18 852 25.16 18.8 65.9 28 0.1 32.1
11:10 1022 30.18 852 25.16 19 66.2 29 0.5 32.9
11:15 1022 30.18 852 25.16 19.1 66.3 28 0.4 32.8
11:20 1022 30.18 851 25.13 19.1 66.4 28 0.5 32.9
11:25 1022 30.18 851 25.13 19.1 66.3 29 0.9 33.7
11:30 1022 30.18 851 25.13 19.4 66.9 28 0.7 33.3
11:35 1022 30.18 851 25.13 19.8 67.7 28 0.8 33.4
11:40 1022 30.18 851 25.13 19.7 67.5 28 1.1 33.9
11:45 1022 30.18 851 25.13 19.2 66.5 29 0.7 33.3
11:50 1022 30.18 851 25.13 19.5 67.2 26 -0.2 31.7
11:55 1022 30.18 851 25.13 20.1 68.1 26 0 32.1
12:00 1022 30.18 851 25.13 19.6 67.3 28 0.7 33.3
12:05 1022 30.18 851 25.13 19.2 66.5 27 -0.3 31.5
12:10 1022 30.18 851 25.13 19.4 67 26 -0.2 31.6
12:15 1022 30.18 851 25.13 19.7 67.4 25 -0.7 30.8
12:20 1022 30.18 851 25.13 20.5 69 24 -0.6 31
12:25 1022 30.18 851 25.13 20.4 68.6 25 -0.1 31.8
12:30 1021 30.15 851 25.13 20.3 68.6 25 -0.1 31.8
12:35 1021 30.15 851 25.13 19.5 67.1 25 -0.9 30.4
12:40 1021 30.15 851 25.13 20.4 68.7 25 -0.2 31.7
12:45 1021 30.15 850 25.1 20.5 68.9 23 -1 30.3
12:50 1021 30.15 850 25.1 21.3 70.3 22 -1.2 29.9
12:55 1021 30.15 850 25.1 21.7 71.1 22 -0.7 30.7
13:00 1021 30.15 850 25.1 20.8 69.4 24 -0.6 31
13:05 1021 30.15 850 25.1 20.4 68.7 23 -1 30.1
13:10 1021 30.15 850 25.1 20.7 69.2 23 -1.2 29.8
13:15 1021 30.15 850 25.1 20.5 68.9 23 -0.9 30.3
13:20 1021 30.15 850 25.1 19.9 67.8 24 -1 30.2
13:25 1021 30.15 850 25.1 19.4 67 25 -1.1 30
13:30 1021 30.15 850 25.1 20.2 68.4 23 -1.4 29.5
13:35 1021 30.15 850 25.1 20.5 68.8 23 -1.2 29.9
13:40 1021 30.15 850 25.1 21.3 70.3 22 -1.3 29.6
13:45 1021 30.15 850 25.1 21.7 71.1 22 -0.8 30.5
13:50 1021 30.15 850 25.1 21.7 71.1 22 -0.8 30.5
13:55 1020 30.12 850 25.1 21.4 70.5 22 -0.7 30.7
14:00 1020 30.12 850 25.1 21.5 70.8 22 -0.6 30.8
14:05 1020 30.12 850 25.1 21.3 70.3 22 -1.1 30
14:10 1020 30.12 850 25.1 21.6 70.9 21 -1.4 29.5
14:15 1020 30.12 850 25.1 21.8 71.3 21 -1.1 29.9
14:20 1020 30.12 850 25.1 21.6 70.9 22 -0.9 30.4
14:25 1020 30.12 850 25.1 21 69.7 25 0.2 32.4
14:30 1020 30.12 850 25.1 20.2 68.3 26 -0 32
14:35 1020 30.12 850 25.1 19.4 66.9 27 -0 31.9
14:40 1020 30.12 850 25.1 19.9 67.9 25 -0.5 31.1
14:45 1020 30.12 850 25.1 20.2 68.4 24 -0.7 30.7
14:50 1020 30.12 850 25.1 20.4 68.8 23 -1.1 30
14:55 1020 30.12 850 25.1 21 69.7 24 -0 32
15:00 1020 30.12 850 25.1 20.8 69.4 24 -0.4 31.3
15:05 1020 30.12 850 25.1 20.8 69.5 22 -1.3 29.7
15:10 1020 30.12 850 25.1 20.1 68.1 25 -0.6 30.9
15:15 1020 30.12 850 25.1 19.8 67.6 24 -0.9 30.3
15:20 1020 30.12 850 25.1 19.8 67.6 24 -1.1 30
15:25 1020 30.12 850 25.1 19.9 67.7 25 -0.5 31.1
15:30 1020 30.12 850 25.1 19.6 67.4 25 -0.5 31
15:35 1020 30.12 850 25.1 19.7 67.5 25 -0.8 30.6
15:40 1020 30.12 850 25.1 19.6 67.3 25 -1 30.2
15:45 1020 30.12 849 25.07 19.8 67.6 25 -0.5 31.1
15:50 1020 30.12 849 25.07 19.5 67.2 27 0.1 32.3
15:55 1020 30.12 850 25.1 19.4 66.9 26 -0.5 31.1
16:00 1020 30.12 850 25.1 19.8 67.7 25 -0.5 31.2
16:05 1020 30.12 850 25.1 19.9 67.8 25 -0.7 30.8
16:10 1020 30.12 849 25.07 19.8 67.6 26 -0.1 31.9
16:15 1020 30.12 849 25.07 19.7 67.5 25 -0.5 31
16:20 1020 30.12 849 25.07 20.4 68.8 24 -0.5 31.1
16:25 1020 30.12 849 25.07 20.8 69.4 23 -0.7 30.8
16:30 1020 30.12 849 25.07 20.5 68.9 24 -0.7 30.7
16:35 1020 30.12 849 25.07 20.5 68.8 25 -0.3 31.5
16:40 1020 30.12 849 25.07 20.5 68.8 24 -0.3 31.4
16:45 1020 30.12 849 25.07 20.2 68.3 26 0.1 32.2
16:50 1020 30.12 849 25.07 19.6 67.3 27 0.2 32.4
16:55 1020 30.12 849 25.07 19.2 66.6 28 0.3 32.5
17:00 1020 30.12 849 25.07 19 66.2 28 0.3 32.6
17:05 1020 30.12 849 25.07 18.9 65.9 28 0.3 32.5
17:10 1020 30.12 849 25.07 18.7 65.7 28 -0.1 31.9
17:15 1020 30.12 849 25.07 18.6 65.4 30 1 33.8
17:20 1020 30.12 849 25.07 18.1 64.6 34 2 35.7
17:25 1020 30.12 849 25.07 17.7 63.8 34 1.7 35
17:30 1020 30.12 849 25.07 17.3 63.2 37 2.6 36.8
17:35 1020 30.12 849 25.07 16.6 61.9 43 4 39.2
17:40 1020 30.12 849 25.07 16 60.8 44 3.7 38.7
17:45 1020 30.12 849 25.07 15.9 60.6 44 3.6 38.5
17:50 1020 30.12 849 25.07 15.6 60.1 42 2.9 37.2
17:55 1020 30.12 849 25.07 15.2 59.4 44 3.1 37.5
18:00 1020 30.12 849 25.07 14.8 58.7 45 3.2 37.8
18:05 1020 30.12 849 25.07 14.7 58.5 46 3.1 37.7
18:10 1020 30.12 849 25.07 14.4 57.8 48 3.4 38.2
18:15 1020 30.12 849 25.07 13.9 57.1 49 3.4 38.1
18:20 1020 30.12 849 25.07 13.7 56.6 50 3.4 38.1
18:25 1020 30.12 849 25.07 13.4 56.1 49 3 37.3
18:30 1020 30.12 849 25.07 13.3 55.9 49 2.7 36.9
18:35 1020 30.12 849 25.07 13.2 55.7 49 2.7 36.8
18:40 1020 30.12 849 25.07 13.1 55.5 48 2.3 36.2
18:45 1020 30.12 849 25.07 13.2 55.8 46 1.8 35.3
18:50 1020 30.12 849 25.07 13.2 55.8 47 2.4 36.3
18:55 1020 30.12 849 25.07 13 55.3 49 2.5 36.5
19:00 1020 30.12 849 25.07 12.8 55 50 2.6 36.7
19:05 1020 30.12 849 25.07 12.7 54.8 48 1.9 35.4
19:10 1020 30.12 849 25.07 12.4 54.4 51 2.7 36.9
19:15 1020 30.12 849 25.07 11.9 53.4 52 2.3 36.2
19:20 1020 30.12 849 25.07 11.9 53.4 50 1.8 35.2
19:25 1020 30.12 849 25.07 11.9 53.4 49 1.4 34.6
19:30 1020 30.12 849 25.07 12 53.6 48 1.5 34.6
19:35 1020 30.12 849 25.07 12.3 54.1 47 1.4 34.5
19:40 1020 30.12 849 25.07 12.3 54.2 47 1.3 34.3
19:45 1020 30.12 849 25.07 12.5 54.5 45 0.9 33.7
19:50 1020 30.12 849 25.07 12.7 54.8 45 1 33.9
19:55 1020 30.12 849 25.07 12.6 54.6 46 1.4 34.5
20:00 1020 30.12 849 25.07 12.2 54 46 1.1 34
20:05 1020 30.12 849 25.07 12.1 53.8 46 0.9 33.6
20:10 1020 30.12 849 25.07 12.2 53.9 46 1 33.7
20:15 1020 30.12 849 25.07 12.2 53.9 46 1 33.7
20:20 1020 30.12 849 25.07 12 53.6 47 1 33.9
20:25 1020 30.12 849 25.07 11.8 53.3 47 1 33.8
20:30 1020 30.12 849 25.07 11.8 53.2 47 0.9 33.6
20:35 1020 30.12 849 25.07 11.9 53.4 46 0.7 33.2
20:40 1020 30.12 849 25.07 11.8 53.2 46 0.6 33.1
20:45 1020 30.12 849 25.07 11.8 53.2 46 0.6 33.1
20:50 1020 30.12 849 25.07 11.6 52.9 46 0.5 33
20:55 1020 30.12 849 25.07 11.5 52.7 46 0.5 32.8
21:00 1020 30.12 849 25.07 11.4 52.6 47 0.6 33
21:05 1020 30.12 849 25.07 11.4 52.5 47 0.4 32.8
21:10 1020 30.12 849 25.07 11.3 52.3 47 0.5 32.9
21:15 1019 30.09 849 25.07 11.1 52 48 0.6 33
21:20 1019 30.09 849 25.07 11 51.8 48 0.4 32.8
21:25 1019 30.09 849 25.07 11.1 51.9 48 0.4 32.7
21:30 1019 30.09 849 25.07 11 51.8 47 0.3 32.6
21:35 1019 30.09 848 25.04 11.1 52 47 0.3 32.6
21:40 1019 30.09 848 25.04 11 51.9 47 0.3 32.6
21:45 1019 30.09 848 25.04 11.1 51.9 46 -0 31.9
21:50 1019 30.09 848 25.04 11.2 52.2 46 0.1 32.1
21:55 1019 30.09 848 25.04 11.1 52 46 0 32
22:00 1019 30.09 848 25.04 11.1 51.9 46 0.1 32.1
22:05 1019 30.09 848 25.04 11.1 52 46 -0 32
22:10 1019 30.09 848 25.04 11.3 52.3 45 -0.1 31.9
22:15 1019 30.09 848 25.04 11.2 52.1 47 0.3 32.5
22:20 1019 30.09 848 25.04 10.9 51.5 47 0.1 32.2
22:25 1019 30.09 848 25.04 10.9 51.6 47 0 32
22:30 1019 30.09 848 25.04 10.9 51.7 46 -0.1 31.9
22:35 1019 30.09 848 25.04 11 51.9 46 0 32
22:40 1019 30.09 848 25.04 11.1 52 45 -0.2 31.7
22:45 1019 30.09 848 25.04 11.3 52.3 45 -0.3 31.5
22:50 1019 30.09 848 25.04 11.6 52.9 43 -0.5 31
22:55 1019 30.09 848 25.04 11.8 53.2 44 -0.2 31.7
23:00 1019 30.09 848 25.04 11.5 52.7 44 -0.2 31.6
23:05 1019 30.09 848 25.04 11.3 52.3 45 -0.1 31.9
23:10 1019 30.09 848 25.04 11.1 52 45 -0.2 31.6
23:15 1019 30.09 848 25.04 11.1 51.9 45 -0.2 31.6
23:20 1019 30.09 848 25.04 11 51.8 45 -0.3 31.4
23:25 1019 30.09 848 25.04 11.2 52.1 45 -0.2 31.7
23:30 1019 30.09 848 25.04 11.1 52 45 -0.4 31.3
23:35 1019 30.09 848 25.04 11 51.8 46 -0.2 31.6
23:40 1019 30.09 848 25.04 10.7 51.3 48 0.3 32.5
23:45 1019 30.09 848 25.04 10.2 50.3 49 -0.1 31.7
23:50 1019 30.09 848 25.04 10.3 50.6 47 -0.4 31.3
23:55 1019 30.09 848 25.04 10.6 51 47 -0.3 31.5
24:00 1019 30.09 848 25.04 10.6 51.1 46 -0.6 31